createdAt,value
2018-05-09T00:01:49.013Z,47.66
2018-05-09T00:04:16.401Z,47.67
2018-05-09T00:06:43.820Z,47.75
2018-05-09T00:09:11.208Z,47.88
2018-05-09T00:11:38.659Z,47.61
2018-05-09T00:14:06.066Z,47.87
2018-05-09T00:16:33.462Z,48.00
2018-05-09T00:19:00.857Z,48.02
2018-05-09T00:21:28.256Z,48.46
2018-05-09T00:23:55.937Z,48.70
2018-05-09T00:26:23.360Z,48.74
2018-05-09T00:28:50.771Z,48.70
2018-05-09T00:31:18.161Z,48.36
2018-05-09T00:33:45.554Z,48.41
2018-05-09T00:36:12.955Z,48.84
2018-05-09T00:38:40.363Z,49.13
2018-05-09T00:41:07.846Z,49.43
2018-05-09T00:43:35.301Z,49.54
2018-05-09T00:46:02.773Z,49.31
2018-05-09T00:48:30.179Z,49.54
2018-05-09T00:50:57.578Z,49.38
2018-05-09T00:53:25.001Z,49.78
2018-05-09T00:55:52.485Z,50.00
2018-05-09T00:58:19.892Z,50.15
2018-05-09T01:00:47.292Z,49.82
2018-05-09T01:03:14.693Z,50.17
2018-05-09T01:05:42.091Z,50.18
2018-05-09T01:08:09.565Z,50.11
2018-05-09T01:10:36.960Z,49.95
2018-05-09T01:13:04.449Z,50.13
2018-05-09T01:15:31.893Z,50.15
2018-05-09T01:17:59.370Z,49.93
2018-05-09T01:20:26.767Z,50.20
2018-05-09T01:22:54.190Z,50.45
2018-05-09T01:25:21.589Z,50.33
2018-05-09T01:27:49.087Z,49.91
2018-05-09T01:30:16.544Z,50.11
2018-05-09T01:32:43.926Z,50.05
2018-05-09T01:35:11.332Z,50.26
2018-05-09T01:37:38.798Z,50.19
2018-05-09T01:40:06.257Z,50.24
2018-05-09T01:42:33.663Z,50.21
2018-05-09T01:45:01.161Z,50.20
2018-05-09T01:47:28.566Z,50.04
2018-05-09T01:49:55.960Z,50.56
2018-05-09T01:52:23.445Z,50.48
2018-05-09T01:54:50.920Z,50.39
2018-05-09T01:57:18.296Z,50.13
2018-05-09T01:59:45.713Z,49.63
2018-05-09T02:02:13.115Z,50.00
2018-05-09T02:04:40.506Z,49.81
2018-05-09T02:07:07.947Z,49.45
2018-05-09T02:09:35.355Z,49.28
2018-05-09T02:12:02.754Z,49.53
2018-05-09T02:14:30.165Z,49.65
2018-05-09T02:16:57.552Z,49.81
2018-05-09T02:19:24.970Z,49.73
2018-05-09T02:21:52.416Z,49.52
2018-05-09T02:24:19.829Z,49.04
2018-05-09T02:26:47.233Z,48.94
2018-05-09T02:29:14.638Z,49.29
2018-05-09T02:31:42.141Z,49.62
2018-05-09T02:34:09.530Z,49.96
2018-05-09T02:36:36.933Z,50.00
2018-05-09T02:39:04.506Z,50.07
2018-05-09T02:41:31.808Z,50.08
2018-05-09T02:43:59.234Z,49.85
2018-05-09T02:46:26.631Z,49.71
2018-05-09T02:48:54.041Z,49.59
2018-05-09T02:51:21.497Z,49.73
2018-05-09T02:53:48.946Z,49.94
2018-05-09T02:56:16.345Z,49.85
2018-05-09T02:58:43.745Z,50.13
2018-05-09T03:01:11.151Z,50.11
2018-05-09T03:03:38.586Z,50.13
2018-05-09T03:06:05.993Z,50.57
2018-05-09T03:08:33.486Z,51.28
2018-05-09T03:11:00.881Z,51.83
2018-05-09T03:13:28.266Z,51.34
2018-05-09T03:15:55.653Z,51.75
2018-05-09T03:18:23.052Z,51.85
2018-05-09T03:20:50.458Z,51.80
2018-05-09T03:23:17.919Z,51.80
2018-05-09T03:25:45.377Z,52.13
2018-05-09T03:28:12.765Z,52.32
2018-05-09T03:30:40.173Z,52.23
2018-05-09T03:33:07.645Z,52.44
2018-05-09T03:35:35.041Z,52.65
2018-05-09T03:38:02.424Z,52.58
2018-05-09T03:40:29.822Z,52.20
2018-05-09T03:42:57.213Z,52.13
2018-05-09T03:45:24.622Z,52.31
2018-05-09T03:47:52.021Z,52.51
2018-05-09T03:50:19.432Z,52.64
2018-05-09T03:52:46.893Z,52.45
2018-05-09T03:55:14.345Z,52.94
2018-05-09T03:57:41.755Z,53.10
2018-05-09T04:00:09.141Z,53.24
2018-05-09T04:02:48.386Z,54.02
2018-05-09T04:05:27.725Z,53.89
2018-05-09T04:08:06.976Z,53.37
2018-05-09T04:10:34.393Z,53.88
2018-05-09T04:13:01.784Z,54.12
2018-05-09T04:15:29.266Z,54.33
2018-05-09T04:17:56.674Z,54.65
2018-05-09T04:20:24.139Z,53.90
2018-05-09T04:22:51.597Z,54.75
2018-05-09T04:25:18.995Z,53.72
2018-05-09T04:27:46.392Z,53.21
2018-05-09T04:30:13.865Z,53.04
2018-05-09T04:32:41.325Z,52.59
2018-05-09T04:35:08.726Z,52.37
2018-05-09T04:37:36.130Z,53.00
2018-05-09T04:40:03.511Z,52.37
2018-05-09T04:42:30.956Z,52.78
2018-05-09T04:44:58.352Z,52.35
2018-05-09T04:47:25.770Z,52.44
2018-05-09T04:49:53.126Z,53.10
2018-05-09T04:52:20.577Z,51.98
2018-05-09T04:54:47.969Z,51.75
2018-05-09T04:57:15.365Z,51.98
2018-05-09T04:59:43.504Z,51.30
2018-05-09T05:02:10.915Z,51.15
2018-05-09T05:04:38.301Z,52.42
2018-05-09T05:07:05.766Z,51.40
2018-05-09T05:09:33.192Z,51.37
2018-05-09T05:12:00.640Z,50.23
2018-05-09T05:14:28.041Z,48.75
2018-05-09T05:16:55.438Z,45.58
2018-05-09T05:19:22.909Z,41.08
2018-05-09T05:21:50.368Z,37.08
2018-05-09T05:24:17.753Z,34.26
2018-05-09T05:26:45.149Z,31.44
2018-05-09T05:29:12.537Z,29.95
2018-05-09T05:31:40.005Z,29.71
2018-05-09T05:34:07.412Z,27.55
2018-05-09T05:36:34.810Z,25.86
2018-05-09T05:39:02.242Z,24.71
2018-05-09T05:41:29.733Z,23.78
2018-05-09T05:43:57.182Z,24.39
2018-05-09T05:46:24.625Z,23.18
2018-05-09T05:48:52.086Z,23.62
2018-05-09T05:51:19.473Z,24.29
2018-05-09T05:53:46.879Z,24.93
2018-05-09T05:56:14.278Z,25.34
2018-05-09T05:58:41.682Z,26.14
2018-05-09T06:01:09.137Z,25.30
2018-05-09T06:03:36.548Z,24.65
2018-05-09T06:06:03.945Z,24.39
2018-05-09T06:08:31.341Z,23.26
2018-05-09T06:10:58.734Z,23.45
2018-05-09T06:13:26.186Z,23.43
2018-05-09T06:15:53.633Z,23.15
2018-05-09T06:18:21.088Z,23.40
2018-05-09T06:20:48.567Z,24.02
2018-05-09T06:23:16.008Z,23.77
2018-05-09T06:25:43.453Z,22.84
2018-05-09T06:28:10.857Z,23.61
2018-05-09T06:30:38.249Z,22.51
2018-05-09T06:33:05.656Z,23.94
2018-05-09T06:35:33.058Z,25.11
2018-05-09T06:38:00.532Z,22.98
2018-05-09T06:40:28.007Z,23.95
2018-05-09T06:42:55.435Z,23.85
2018-05-09T06:45:22.790Z,24.12
2018-05-09T06:47:50.197Z,23.32
2018-05-09T06:50:17.633Z,23.61
2018-05-09T06:52:45.090Z,24.00
2018-05-09T06:55:12.469Z,23.95
2018-05-09T06:57:39.886Z,25.03
2018-05-09T07:00:07.351Z,24.90
2018-05-09T07:02:34.767Z,23.50
2018-05-09T07:05:02.265Z,25.11
2018-05-09T07:07:29.719Z,24.37
2018-05-09T07:09:57.101Z,24.52
2018-05-09T07:12:24.525Z,24.20
2018-05-09T07:14:51.913Z,26.41
2018-05-09T07:17:20.626Z,25.37
2018-05-09T07:19:48.046Z,24.28
2018-05-09T07:22:15.533Z,23.32
2018-05-09T07:24:42.937Z,23.02
2018-05-09T07:27:10.321Z,24.57
2018-05-09T07:29:37.750Z,24.22
2018-05-09T07:32:05.139Z,24.36
2018-05-09T07:34:32.571Z,23.02
2018-05-09T07:36:59.952Z,23.41
2018-05-09T07:39:27.357Z,23.63
2018-05-09T07:41:54.757Z,23.81
2018-05-09T07:44:22.153Z,24.58
2018-05-09T07:46:49.541Z,25.13
2018-05-09T07:49:16.941Z,24.58
2018-05-09T07:51:44.373Z,23.57
2018-05-09T07:54:11.773Z,23.63
2018-05-09T07:59:04.678Z,24.50
2018-05-09T08:01:32.129Z,25.31
2018-05-09T08:03:59.535Z,25.69
2018-05-09T08:06:26.933Z,26.89
2018-05-09T08:08:54.337Z,25.03
2018-05-09T08:11:22.685Z,25.89
2018-05-09T08:13:50.086Z,25.87
2018-05-09T08:16:17.482Z,27.14
2018-05-09T08:18:44.954Z,28.48
2018-05-09T08:21:12.414Z,27.53
2018-05-09T08:23:39.870Z,28.39
2018-05-09T08:26:07.261Z,27.15
2018-05-09T08:28:34.690Z,29.06
2018-05-09T08:31:02.085Z,27.21
2018-05-09T08:33:29.474Z,27.98
2018-05-09T08:35:56.864Z,28.61
2018-05-09T08:38:24.253Z,29.43
2018-05-09T08:40:51.662Z,29.41
2018-05-09T08:43:19.206Z,29.66
2018-05-09T08:45:46.522Z,29.29
2018-05-09T08:48:13.918Z,29.55
2018-05-09T08:50:41.315Z,28.61
2018-05-09T08:53:08.744Z,29.39
2018-05-09T08:55:36.133Z,30.59
2018-05-09T08:58:03.534Z,29.18
2018-05-09T09:00:30.925Z,31.62
2018-05-09T09:02:58.312Z,29.46
2018-05-09T09:05:25.742Z,29.83
2018-05-09T09:07:53.145Z,29.75
2018-05-09T09:10:20.541Z,31.17
2018-05-09T09:12:47.998Z,30.71
2018-05-09T09:15:15.387Z,29.30
2018-05-09T09:17:42.853Z,29.84
2018-05-09T09:20:10.249Z,31.31
2018-05-09T09:22:37.717Z,31.49
2018-05-09T09:25:05.178Z,30.36
2018-05-09T09:27:32.591Z,30.65
2018-05-09T09:29:59.995Z,30.68
2018-05-09T09:32:27.389Z,30.40
2018-05-09T09:34:54.886Z,29.72
2018-05-09T09:37:22.203Z,28.95
2018-05-09T09:39:49.617Z,27.99
2018-05-09T09:42:17.011Z,29.65
2018-05-09T09:44:44.402Z,29.95
2018-05-09T09:47:11.801Z,29.32
2018-05-09T09:49:39.203Z,29.77
2018-05-09T09:52:06.588Z,29.38
2018-05-09T09:54:33.996Z,29.20
2018-05-09T09:57:01.409Z,28.08
2018-05-09T09:59:28.858Z,28.42
2018-05-09T10:01:56.326Z,27.93
2018-05-09T10:04:23.733Z,27.27
2018-05-09T10:06:51.126Z,27.32
2018-05-09T10:09:18.596Z,28.29
2018-05-09T10:11:45.991Z,27.61
2018-05-09T10:14:13.397Z,28.29
2018-05-09T10:16:40.869Z,28.21
2018-05-09T10:19:08.262Z,28.72
2018-05-09T10:21:35.653Z,29.18
2018-05-09T10:24:03.054Z,27.81
2018-05-09T10:26:30.444Z,27.70
2018-05-09T10:28:57.953Z,28.66
2018-05-09T10:31:25.363Z,28.77
2018-05-09T10:33:52.757Z,27.01
2018-05-09T10:36:20.165Z,28.48
2018-05-09T10:38:47.672Z,27.57
2018-05-09T10:41:15.149Z,27.38
2018-05-09T10:43:42.548Z,26.95
2018-05-09T10:46:09.948Z,27.89
2018-05-09T10:48:37.343Z,27.74
2018-05-09T10:51:04.725Z,28.25
2018-05-09T10:53:32.140Z,28.86
2018-05-09T10:55:59.520Z,28.86
2018-05-09T10:58:26.920Z,27.99
2018-05-09T11:00:54.312Z,27.90
2018-05-09T11:03:21.745Z,28.71
2018-05-09T11:05:49.193Z,29.68
2018-05-09T11:08:16.650Z,29.21
2018-05-09T11:10:44.104Z,28.42
2018-05-09T11:13:11.560Z,29.76
2018-05-09T11:15:38.972Z,29.53
2018-05-09T11:18:06.349Z,29.20
2018-05-09T11:20:33.759Z,29.45
2018-05-09T11:23:01.210Z,30.19
2018-05-09T11:25:28.667Z,29.85
2018-05-09T11:27:56.201Z,30.29
2018-05-09T11:30:23.653Z,31.07
2018-05-09T11:32:51.038Z,28.41
2018-05-09T11:35:18.530Z,29.03
2018-05-09T11:37:45.922Z,29.10
2018-05-09T11:40:13.378Z,28.95
2018-05-09T11:42:40.768Z,28.12
2018-05-09T11:45:08.175Z,27.49
2018-05-09T11:47:35.631Z,28.71
2018-05-09T11:50:03.022Z,28.97
2018-05-09T11:52:30.426Z,28.67
2018-05-09T11:54:57.890Z,26.96
2018-05-09T11:57:25.341Z,28.32
2018-05-09T11:59:52.742Z,28.53
2018-05-09T12:02:20.157Z,27.40
2018-05-09T12:04:47.563Z,27.21
2018-05-09T12:07:14.981Z,27.23
2018-05-09T12:09:42.385Z,27.20
2018-05-09T12:12:09.781Z,28.38
2018-05-09T12:14:37.186Z,28.02
2018-05-09T12:17:04.628Z,26.65
2018-05-09T12:19:32.122Z,26.98
2018-05-09T12:21:59.509Z,28.81
2018-05-09T12:24:27.110Z,27.02
2018-05-09T12:26:54.489Z,26.83
2018-05-09T12:29:21.894Z,28.45
2018-05-09T12:31:49.301Z,27.41
2018-05-09T12:34:17.610Z,27.83
2018-05-09T12:36:45.004Z,26.93
2018-05-09T12:39:12.405Z,28.63
2018-05-09T12:41:39.797Z,29.02
2018-05-09T12:44:07.197Z,29.63
2018-05-09T12:46:34.611Z,30.00
2018-05-09T12:49:02.042Z,29.57
2018-05-09T12:51:29.464Z,31.91
2018-05-09T12:53:56.889Z,29.69
2018-05-09T12:56:24.389Z,29.43
2018-05-09T12:58:51.782Z,29.61
2018-05-09T13:01:19.205Z,29.64
2018-05-09T13:03:46.666Z,30.02
2018-05-09T13:06:14.098Z,30.22
2018-05-09T13:08:41.512Z,30.49
2018-05-09T13:11:08.933Z,30.17
2018-05-09T13:13:36.390Z,29.34
2018-05-09T13:16:03.849Z,30.07
2018-05-09T13:18:31.297Z,28.07
2018-05-09T13:20:58.762Z,28.52
2018-05-09T13:23:26.157Z,29.97
2018-05-09T13:25:53.664Z,29.07
2018-05-09T13:28:21.009Z,29.11
2018-05-09T13:30:48.481Z,29.61
2018-05-09T13:33:15.876Z,29.85
2018-05-09T13:35:43.282Z,30.01
2018-05-09T13:38:10.757Z,31.74
2018-05-09T13:40:38.153Z,31.80
2018-05-09T13:43:05.555Z,31.85
2018-05-09T13:45:33.029Z,32.30
2018-05-09T13:48:00.419Z,32.59
2018-05-09T13:50:27.815Z,33.07
2018-05-09T13:52:55.206Z,33.25
2018-05-09T13:55:22.615Z,33.29
2018-05-09T13:57:50.021Z,32.92
2018-05-09T14:00:17.410Z,33.11
2018-05-09T14:02:44.805Z,34.97
2018-05-09T14:05:12.217Z,33.24
2018-05-09T14:07:39.626Z,33.39
2018-05-09T14:10:07.114Z,33.37
2018-05-09T14:12:34.533Z,33.45
2018-05-09T14:15:01.943Z,33.29
2018-05-09T14:17:29.337Z,33.39
2018-05-09T14:19:56.735Z,33.88
2018-05-09T14:22:24.128Z,33.20
2018-05-09T14:24:51.638Z,32.26
2018-05-09T14:27:19.098Z,31.82
2018-05-09T14:29:46.549Z,32.68
2018-05-09T14:32:14.092Z,32.35
2018-05-09T14:34:41.405Z,32.97
2018-05-09T14:37:08.787Z,32.01
2018-05-09T14:39:36.185Z,32.51
2018-05-09T14:42:03.577Z,31.17
2018-05-09T14:44:31.005Z,32.78
2018-05-09T14:46:58.377Z,32.22
2018-05-09T14:49:25.772Z,32.08
2018-05-09T14:51:53.166Z,29.81
2018-05-09T14:54:20.610Z,30.54
2018-05-09T14:56:48.071Z,30.47
2018-05-09T14:59:15.461Z,30.41
2018-05-09T15:01:42.848Z,29.89
2018-05-09T15:04:10.249Z,29.95
2018-05-09T15:06:37.694Z,30.04
2018-05-09T15:09:05.102Z,29.86
2018-05-09T15:11:32.497Z,30.21
2018-05-09T15:14:00.012Z,31.41
2018-05-09T15:16:27.379Z,31.36
2018-05-09T15:18:54.778Z,32.00
2018-05-09T15:21:22.249Z,31.78
2018-05-09T15:23:49.625Z,31.56
2018-05-09T15:26:17.029Z,31.46
2018-05-09T15:28:44.421Z,31.22
2018-05-09T15:31:11.823Z,31.90
2018-05-09T15:33:39.236Z,30.90
2018-05-09T15:36:06.633Z,31.30
2018-05-09T15:38:34.019Z,31.92
2018-05-09T15:41:01.402Z,31.85
2018-05-09T15:43:28.837Z,32.02
2018-05-09T15:45:56.232Z,32.19
2018-05-09T15:48:23.661Z,32.33
2018-05-09T15:50:51.110Z,31.70
2018-05-09T15:53:18.505Z,31.73
2018-05-09T15:55:45.897Z,32.59
2018-05-09T15:58:13.281Z,32.00
2018-05-09T16:00:40.773Z,32.36
2018-05-09T16:03:08.149Z,31.98
2018-05-09T16:05:35.541Z,32.04
2018-05-09T16:08:03.018Z,30.87
2018-05-09T16:10:30.491Z,31.20
2018-05-09T16:12:57.814Z,31.66
2018-05-09T16:15:25.205Z,30.66
2018-05-09T16:17:52.593Z,31.55
2018-05-09T16:20:19.985Z,31.19
2018-05-09T16:22:47.456Z,30.95
2018-05-09T16:25:14.853Z,31.67
2018-05-09T16:27:42.255Z,31.58
2018-05-09T16:30:09.714Z,31.78
2018-05-09T16:32:37.102Z,32.08
2018-05-09T16:35:04.546Z,32.43
2018-05-09T16:37:31.932Z,32.78
2018-05-09T16:39:59.337Z,33.10
2018-05-09T16:42:26.734Z,33.55
2018-05-09T16:44:54.118Z,33.39
2018-05-09T16:47:21.529Z,33.34
2018-05-09T16:49:48.986Z,33.78
2018-05-09T16:52:16.393Z,34.39
2018-05-09T16:54:43.794Z,35.09
2018-05-09T16:57:11.233Z,34.70
2018-05-09T16:59:38.690Z,34.89
2018-05-09T17:02:06.195Z,34.85
2018-05-09T17:04:33.557Z,34.82
2018-05-09T17:07:01.060Z,34.97
2018-05-09T17:09:28.562Z,35.18
2018-05-09T17:11:55.981Z,35.67
2018-05-09T17:14:23.373Z,35.47
2018-05-09T17:16:50.761Z,35.93
2018-05-09T17:19:18.167Z,35.98
2018-05-09T17:24:54.796Z,36.54
2018-05-09T17:27:22.196Z,36.33
2018-05-09T17:29:49.577Z,36.34
2018-05-09T17:32:16.969Z,36.17
2018-05-09T17:34:44.433Z,36.38
2018-05-09T17:37:11.834Z,36.55
2018-05-09T17:39:39.285Z,37.61
2018-05-09T17:42:06.734Z,36.65
2018-05-09T17:44:34.206Z,36.75
2018-05-09T17:47:01.618Z,37.48
2018-05-09T17:49:29.021Z,37.30
2018-05-09T17:51:56.415Z,37.11
2018-05-09T17:54:23.798Z,37.42
2018-05-09T17:56:52.177Z,37.88
2018-05-09T17:59:19.569Z,37.88
2018-05-09T18:01:47.011Z,38.02
2018-05-09T18:04:14.449Z,38.02
2018-05-09T18:06:41.869Z,37.67
2018-05-09T18:09:09.269Z,37.85
2018-05-09T18:11:36.709Z,38.24
2018-05-09T18:14:04.104Z,38.52
2018-05-09T18:16:31.519Z,38.54
2018-05-09T18:18:58.915Z,38.46
2018-05-09T18:21:26.305Z,38.68
2018-05-09T18:23:53.707Z,38.76
2018-05-09T18:26:21.114Z,39.16
2018-05-09T18:28:48.593Z,39.05
2018-05-09T18:31:15.998Z,39.32
2018-05-09T18:33:43.392Z,39.43
2018-05-09T18:36:10.790Z,39.56
2018-05-09T18:38:38.170Z,39.39
2018-05-09T18:41:05.583Z,39.44
2018-05-09T18:43:33.041Z,39.42
2018-05-09T18:46:00.444Z,39.39
2018-05-09T18:48:27.848Z,39.96
2018-05-09T18:50:55.256Z,39.96
2018-05-09T18:53:22.729Z,39.86
2018-05-09T18:55:50.117Z,39.86
2018-05-09T18:58:17.518Z,39.90
2018-05-09T19:00:44.902Z,40.08
2018-05-09T19:03:13.247Z,40.68
2018-05-09T19:05:40.751Z,41.03
2018-05-09T19:08:08.170Z,40.97
2018-05-09T19:10:35.563Z,40.88
2018-05-09T19:13:03.165Z,40.97
2018-05-09T19:15:30.655Z,41.09
2018-05-09T19:17:58.106Z,41.04
2018-05-09T19:20:25.628Z,41.53
2018-05-09T19:22:53.060Z,41.80
2018-05-09T19:25:20.484Z,42.48
2018-05-09T19:27:48.223Z,42.89
2018-05-09T19:30:15.612Z,43.29
2018-05-09T19:32:43.093Z,43.51
2018-05-09T19:35:10.494Z,44.18
2018-05-09T19:37:37.944Z,44.06
2018-05-09T19:40:05.345Z,45.23
2018-05-09T19:42:33.545Z,46.18
2018-05-09T19:45:00.933Z,47.08
2018-05-09T19:47:28.325Z,47.45
2018-05-09T19:49:55.781Z,47.43
2018-05-09T19:52:23.214Z,47.44
2018-05-09T19:54:50.627Z,47.58
2018-05-09T19:57:18.174Z,47.97
2018-05-09T19:59:45.579Z,48.93
2018-05-09T20:02:13.029Z,48.93
2018-05-09T20:04:40.545Z,48.89
2018-05-09T20:07:07.973Z,49.14
2018-05-09T20:09:35.389Z,48.92
2018-05-09T20:12:02.789Z,49.07
2018-05-09T20:14:30.226Z,50.04
2018-05-09T20:16:57.627Z,50.64
2018-05-09T20:19:25.017Z,51.24
2018-05-09T20:21:52.405Z,51.27
2018-05-09T20:24:19.801Z,50.70
2018-05-09T20:26:47.305Z,51.49
2018-05-09T20:29:14.721Z,51.96
2018-05-09T20:31:56.865Z,51.80
2018-05-09T20:34:24.254Z,51.36
2018-05-09T20:36:51.672Z,51.90
2018-05-09T20:39:19.069Z,52.95
2018-05-09T20:41:46.456Z,53.66
2018-05-09T20:44:13.840Z,53.84
2018-05-09T20:46:41.263Z,54.33
2018-05-09T20:49:08.657Z,53.50
2018-05-09T20:51:47.978Z,53.56
2018-05-09T20:54:15.408Z,53.44
2018-05-09T20:56:42.789Z,53.59
2018-05-09T20:59:10.257Z,53.20
2018-05-09T21:01:46.433Z,53.46
2018-05-09T21:04:13.899Z,53.36
2018-05-09T21:06:41.289Z,53.60
2018-05-09T21:09:08.790Z,53.66
2018-05-09T21:11:36.086Z,53.40
2018-05-09T21:14:03.481Z,53.63
2018-05-09T21:16:30.965Z,54.45
2018-05-09T21:18:58.370Z,54.98
2018-05-09T21:21:25.786Z,54.56
2018-05-09T21:23:53.189Z,55.10
2018-05-09T21:26:20.593Z,55.66
2018-05-09T21:28:47.992Z,56.28
2018-05-09T21:31:15.419Z,56.64
2018-05-09T21:33:42.894Z,56.41
2018-05-09T21:36:10.280Z,56.17
2018-05-09T21:38:37.706Z,55.71
2018-05-09T21:41:05.098Z,56.24
2018-05-09T21:43:32.515Z,55.88
2018-05-09T21:45:59.903Z,55.81
2018-05-09T21:48:27.303Z,55.68
2018-05-09T21:50:54.706Z,55.45
2018-05-09T21:53:22.111Z,54.99
2018-05-09T21:55:49.585Z,54.73
2018-05-09T21:58:16.909Z,54.44
2018-05-09T22:00:44.302Z,54.64
2018-05-09T22:03:11.734Z,54.84
2018-05-09T22:05:39.188Z,55.01
2018-05-09T22:08:06.588Z,55.12
2018-05-09T22:10:33.976Z,54.85
2018-05-09T22:13:01.374Z,55.01
2018-05-09T22:15:28.814Z,54.91
2018-05-09T22:17:56.209Z,54.52
2018-05-09T22:20:23.594Z,54.73
2018-05-09T22:22:51.584Z,54.65
2018-05-09T22:25:19.060Z,54.47
2018-05-09T22:27:46.450Z,54.60
2018-05-09T22:30:13.845Z,55.97
2018-05-09T22:32:41.243Z,56.08
2018-05-09T22:35:08.639Z,56.32
2018-05-09T22:37:36.133Z,55.94
2018-05-09T22:40:03.542Z,56.18
2018-05-09T22:42:30.947Z,56.12
2018-05-09T22:44:58.337Z,55.87
2018-05-09T22:47:25.722Z,56.18
2018-05-09T22:49:53.209Z,55.74
2018-05-09T22:52:20.664Z,56.19
2018-05-09T22:54:48.073Z,55.85
2018-05-09T22:57:15.473Z,56.68
2018-05-09T22:59:42.880Z,56.49
2018-05-09T23:02:11.261Z,56.45
2018-05-09T23:04:38.766Z,56.01
2018-05-09T23:07:06.228Z,56.26
2018-05-09T23:09:33.676Z,56.66
2018-05-09T23:12:01.073Z,57.26
2018-05-09T23:14:28.464Z,58.03
2018-05-09T23:16:55.886Z,57.79
2018-05-09T23:19:23.299Z,58.46
2018-05-09T23:21:50.744Z,58.52
2018-05-09T23:24:18.132Z,58.46
2018-05-09T23:26:45.646Z,58.44
2018-05-09T23:29:13.101Z,58.68
2018-05-09T23:31:40.536Z,59.12
2018-05-09T23:34:08.094Z,59.40
2018-05-09T23:36:35.480Z,59.33
2018-05-09T23:39:02.878Z,59.90
2018-05-09T23:41:30.289Z,59.95
2018-05-09T23:43:57.690Z,60.13
2018-05-09T23:46:25.185Z,60.48
2018-05-09T23:48:52.605Z,60.63
2018-05-09T23:51:20.098Z,60.94
2018-05-09T23:53:47.556Z,60.38
2018-05-09T23:56:14.997Z,59.91
2018-05-09T23:58:42.405Z,59.80
